createdAt,value
2022-07-29T00:00:06.041Z,1020.84
2022-07-29T00:00:15.459Z,1020.86
2022-07-29T00:00:24.933Z,1020.89
2022-07-29T00:00:34.335Z,1020.84
2022-07-29T00:00:43.757Z,1020.83
2022-07-29T00:00:53.186Z,1020.83
2022-07-29T00:01:02.566Z,1020.81
2022-07-29T00:01:19.192Z,1020.86
2022-07-29T00:01:21.407Z,1020.88
2022-07-29T00:01:30.854Z,1020.82
2022-07-29T00:01:40.270Z,1020.82
2022-07-29T00:01:49.681Z,1020.84
2022-07-29T00:01:59.079Z,1020.82
2022-07-29T00:02:08.495Z,1020.83
2022-07-29T00:02:27.381Z,1020.84
2022-07-29T00:02:36.860Z,1020.81
2022-07-29T00:02:46.381Z,1020.81
2022-07-29T00:02:55.798Z,1020.88
2022-07-29T00:03:05.124Z,1020.81
2022-07-29T00:03:14.520Z,1020.86
2022-07-29T00:03:23.917Z,1020.79
2022-07-29T00:03:33.355Z,1020.84
2022-07-29T00:03:42.743Z,1020.85
2022-07-29T00:03:52.152Z,1020.87
2022-07-29T00:04:01.701Z,1020.88
2022-07-29T00:04:11.098Z,1020.87
2022-07-29T00:04:21.281Z,1020.83
2022-07-29T00:04:29.949Z,1020.87
2022-07-29T00:04:39.323Z,1020.87
2022-07-29T00:04:48.677Z,1020.86
2022-07-29T00:05:07.521Z,1020.85
2022-07-29T00:05:16.937Z,1020.89
2022-07-29T00:05:26.369Z,1020.83
2022-07-29T00:05:35.788Z,1020.89
2022-07-29T00:05:45.231Z,1020.87
2022-07-29T00:05:54.642Z,1020.81
2022-07-29T00:06:04.044Z,1020.80
2022-07-29T00:06:13.456Z,1020.84
2022-07-29T00:06:22.879Z,1020.82
2022-07-29T00:06:32.311Z,1020.82
2022-07-29T00:06:41.738Z,1020.86
2022-07-29T00:06:51.147Z,1020.88
2022-07-29T00:07:00.656Z,1020.85
2022-07-29T00:07:10.046Z,1020.91
2022-07-29T00:07:19.452Z,1020.83
2022-07-29T00:07:28.872Z,1020.89
2022-07-29T00:07:47.678Z,1020.88
2022-07-29T00:07:57.154Z,1020.86
2022-07-29T00:08:10.685Z,1020.90
2022-07-29T00:08:16.075Z,1020.87
2022-07-29T00:08:25.507Z,1020.94
2022-07-29T00:08:34.886Z,1020.89
2022-07-29T00:08:44.298Z,1020.77
2022-07-29T00:08:53.720Z,1020.86
2022-07-29T00:09:03.164Z,1020.90
2022-07-29T00:09:12.580Z,1020.85
2022-07-29T00:09:22.021Z,1020.84
2022-07-29T00:09:31.478Z,1020.84
2022-07-29T00:09:43.071Z,1020.82
2022-07-29T00:09:52.139Z,1020.80
2022-07-29T00:09:59.721Z,1020.83
2022-07-29T00:10:09.110Z,1020.84
2022-07-29T00:10:18.513Z,1020.81
2022-07-29T00:10:37.337Z,1020.85
2022-07-29T00:10:46.779Z,1020.79
2022-07-29T00:10:56.206Z,1020.81
2022-07-29T00:11:05.630Z,1020.84
2022-07-29T00:11:15.029Z,1020.80
2022-07-29T00:11:24.430Z,1020.85
2022-07-29T00:11:33.831Z,1020.84
2022-07-29T00:11:43.248Z,1020.79
2022-07-29T00:11:52.644Z,1020.80
2022-07-29T00:12:02.058Z,1020.82
2022-07-29T00:12:11.449Z,1020.80
2022-07-29T00:12:21.353Z,1020.79
2022-07-29T00:12:30.263Z,1020.83
2022-07-29T00:12:39.675Z,1020.81
2022-07-29T00:12:49.078Z,1020.81
2022-07-29T00:12:58.486Z,1020.93
2022-07-29T00:13:17.362Z,1020.80
2022-07-29T00:13:32.448Z,1020.79
2022-07-29T00:13:36.194Z,1020.89
2022-07-29T00:13:50.787Z,1020.89
2022-07-29T00:13:55.088Z,1020.87
2022-07-29T00:14:04.499Z,1020.87
2022-07-29T00:14:14.309Z,1020.89
2022-07-29T00:14:23.376Z,1020.85
2022-07-29T00:14:32.769Z,1020.83
2022-07-29T00:14:42.180Z,1020.86
2022-07-29T00:14:51.621Z,1020.86
2022-07-29T00:15:01.048Z,1020.89
2022-07-29T00:15:10.477Z,1020.87
2022-07-29T00:15:19.882Z,1020.87
2022-07-29T00:15:29.298Z,1020.88
2022-07-29T00:15:38.722Z,1020.81
2022-07-29T00:15:57.615Z,1020.83
2022-07-29T00:16:07.020Z,1020.90
2022-07-29T00:16:16.435Z,1020.85
2022-07-29T00:16:25.865Z,1020.87
2022-07-29T00:16:35.317Z,1020.86
2022-07-29T00:16:44.719Z,1020.86
2022-07-29T00:16:54.140Z,1020.87
2022-07-29T00:17:03.469Z,1020.89
2022-07-29T00:17:12.887Z,1020.82
2022-07-29T00:17:22.312Z,1020.86
2022-07-29T00:17:31.725Z,1020.85
2022-07-29T00:17:41.155Z,1020.84
2022-07-29T00:17:50.546Z,1020.89
2022-07-29T00:17:59.951Z,1020.83
2022-07-29T00:18:09.360Z,1020.84
2022-07-29T00:18:18.763Z,1020.83
2022-07-29T00:18:37.580Z,1020.80
2022-07-29T00:18:47.057Z,1020.90
2022-07-29T00:18:58.633Z,1020.90
2022-07-29T00:19:05.897Z,1020.83
2022-07-29T00:19:15.297Z,1020.89
2022-07-29T00:19:24.717Z,1020.83
2022-07-29T00:19:34.127Z,1020.81
2022-07-29T00:19:45.616Z,1020.83
2022-07-29T00:19:52.931Z,1020.82
2022-07-29T00:20:02.380Z,1020.88
2022-07-29T00:20:11.790Z,1020.91
2022-07-29T00:20:21.192Z,1020.82
2022-07-29T00:20:30.621Z,1020.89
2022-07-29T00:20:40.019Z,1020.86
2022-07-29T00:20:49.429Z,1020.88
2022-07-29T00:20:58.826Z,1020.85
2022-07-29T00:21:17.626Z,1020.93
2022-07-29T00:21:27.030Z,1020.86
2022-07-29T00:21:36.431Z,1020.83
2022-07-29T00:21:45.840Z,1020.87
2022-07-29T00:21:55.249Z,1020.91
2022-07-29T00:22:04.656Z,1020.86
2022-07-29T00:22:14.084Z,1020.85
2022-07-29T00:22:23.500Z,1020.83
2022-07-29T00:22:32.895Z,1020.86
2022-07-29T00:22:42.337Z,1020.84
2022-07-29T00:22:51.758Z,1020.84
2022-07-29T00:23:01.182Z,1020.87
2022-07-29T00:23:13.728Z,1020.84
2022-07-29T00:23:20.012Z,1020.84
2022-07-29T00:23:30.703Z,1020.82
2022-07-29T00:23:38.831Z,1020.85
2022-07-29T00:23:57.669Z,1020.88
2022-07-29T00:24:07.090Z,1020.85
2022-07-29T00:24:16.913Z,1020.85
2022-07-29T00:24:29.568Z,1020.84
2022-07-29T00:24:38.988Z,1020.86
2022-07-29T00:24:48.399Z,1020.77
2022-07-29T00:24:57.790Z,1020.83
2022-07-29T00:25:07.199Z,1020.93
2022-07-29T00:25:16.632Z,1020.88
2022-07-29T00:25:26.028Z,1020.88
2022-07-29T00:25:35.427Z,1020.83
2022-07-29T00:25:44.858Z,1020.88
2022-07-29T00:25:54.266Z,1020.82
2022-07-29T00:26:03.661Z,1020.84
2022-07-29T00:26:13.083Z,1020.82
2022-07-29T00:26:22.512Z,1020.84
2022-07-29T00:26:31.988Z,1020.92
2022-07-29T00:26:41.414Z,1020.86
2022-07-29T00:26:50.816Z,1020.85
2022-07-29T00:27:00.247Z,1020.88
2022-07-29T00:27:09.676Z,1020.85
2022-07-29T00:27:19.129Z,1020.85
2022-07-29T00:27:28.480Z,1020.95
2022-07-29T00:27:47.326Z,1020.93
2022-07-29T00:27:56.780Z,1020.93
2022-07-29T00:28:06.196Z,1020.86
2022-07-29T00:28:15.658Z,1020.89
2022-07-29T00:28:25.062Z,1020.91
2022-07-29T00:28:34.463Z,1020.88
2022-07-29T00:28:43.937Z,1020.90
2022-07-29T00:29:06.352Z,1020.94
2022-07-29T00:29:32.453Z,1020.91
2022-07-29T00:29:34.038Z,1020.90
2022-07-29T00:29:37.111Z,1020.88
2022-07-29T00:29:40.699Z,1020.96
2022-07-29T00:29:50.106Z,1020.92
2022-07-29T00:29:59.516Z,1020.93
2022-07-29T00:30:08.954Z,1020.91
2022-07-29T00:30:18.527Z,1020.92
2022-07-29T00:30:37.236Z,1020.92
2022-07-29T00:30:46.695Z,1020.88
2022-07-29T00:30:56.121Z,1020.92
2022-07-29T00:31:05.560Z,1020.95
2022-07-29T00:31:15.005Z,1020.94
2022-07-29T00:31:24.390Z,1020.90
2022-07-29T00:31:33.840Z,1020.91
2022-07-29T00:31:43.328Z,1020.82
2022-07-29T00:31:52.730Z,1020.89
2022-07-29T00:32:02.151Z,1020.89
2022-07-29T00:32:11.524Z,1020.88
2022-07-29T00:32:20.921Z,1020.86
2022-07-29T00:32:30.354Z,1020.91
2022-07-29T00:32:39.779Z,1020.91
2022-07-29T00:32:49.174Z,1020.82
2022-07-29T00:32:58.592Z,1020.82
2022-07-29T00:33:17.462Z,1020.88
2022-07-29T00:33:26.867Z,1020.85
2022-07-29T00:33:36.295Z,1020.88
2022-07-29T00:33:45.704Z,1020.87
2022-07-29T00:33:55.126Z,1020.82
2022-07-29T00:34:04.536Z,1020.88
2022-07-29T00:34:14.162Z,1020.85
2022-07-29T00:34:23.340Z,1020.90
2022-07-29T00:34:32.789Z,1020.87
2022-07-29T00:34:42.198Z,1020.84
2022-07-29T00:34:51.603Z,1020.83
2022-07-29T00:35:01.020Z,1020.92
2022-07-29T00:35:10.427Z,1020.73
2022-07-29T00:35:19.836Z,1020.82
2022-07-29T00:35:29.243Z,1020.82
2022-07-29T00:35:38.645Z,1020.84
2022-07-29T00:35:57.489Z,1020.84
2022-07-29T00:36:06.910Z,1020.81
2022-07-29T00:36:16.317Z,1020.85
2022-07-29T00:36:25.716Z,1020.89
2022-07-29T00:36:35.169Z,1020.81
2022-07-29T00:36:44.594Z,1020.89
2022-07-29T00:36:53.988Z,1020.83
2022-07-29T00:37:03.390Z,1020.84
2022-07-29T00:37:12.814Z,1020.87
2022-07-29T00:37:22.286Z,1020.88
2022-07-29T00:37:31.808Z,1020.83
2022-07-29T00:37:41.228Z,1020.85
2022-07-29T00:37:50.700Z,1020.79
2022-07-29T00:38:00.122Z,1020.88
2022-07-29T00:38:09.545Z,1020.86
2022-07-29T00:38:18.944Z,1020.92
2022-07-29T00:38:28.338Z,1020.89
2022-07-29T00:38:47.234Z,1020.88
2022-07-29T00:38:56.645Z,1020.86
2022-07-29T00:39:06.075Z,1020.81
2022-07-29T00:39:15.507Z,1020.81
2022-07-29T00:39:24.918Z,1020.81
2022-07-29T00:39:34.349Z,1020.88
2022-07-29T00:39:43.786Z,1020.85
2022-07-29T00:39:53.184Z,1020.86
2022-07-29T00:40:02.602Z,1020.81
2022-07-29T00:40:12.020Z,1020.84
2022-07-29T00:40:23.428Z,1020.84
2022-07-29T00:40:30.893Z,1020.83
2022-07-29T00:40:40.325Z,1020.80
2022-07-29T00:40:49.715Z,1020.81
2022-07-29T00:40:59.159Z,1020.81
2022-07-29T00:41:08.639Z,1020.78
2022-07-29T00:41:27.486Z,1020.83
2022-07-29T00:41:36.907Z,1020.80
2022-07-29T00:41:46.351Z,1020.82
2022-07-29T00:41:55.753Z,1020.81
2022-07-29T00:42:05.167Z,1020.84
2022-07-29T00:42:14.588Z,1020.86
2022-07-29T00:42:24.005Z,1020.82
2022-07-29T00:42:33.428Z,1020.80
2022-07-29T00:42:42.854Z,1020.85
2022-07-29T00:42:52.274Z,1020.78
2022-07-29T00:43:01.694Z,1020.81
2022-07-29T00:43:11.113Z,1020.84
2022-07-29T00:43:20.532Z,1020.83
2022-07-29T00:43:29.958Z,1020.80
2022-07-29T00:43:39.375Z,1020.82
2022-07-29T00:43:48.800Z,1020.87
2022-07-29T00:44:07.731Z,1020.86
2022-07-29T00:44:17.507Z,1020.81
2022-07-29T00:44:26.579Z,1020.75
2022-07-29T00:44:36.018Z,1020.79
2022-07-29T00:44:45.470Z,1020.79
2022-07-29T00:44:54.885Z,1020.81
2022-07-29T00:45:04.353Z,1020.83
2022-07-29T00:45:13.752Z,1020.82
2022-07-29T00:45:23.368Z,1020.83
2022-07-29T00:45:32.709Z,1020.82
2022-07-29T00:45:42.121Z,1020.77
2022-07-29T00:45:51.550Z,1020.79
2022-07-29T00:46:00.971Z,1020.85
2022-07-29T00:46:10.458Z,1020.82
2022-07-29T00:46:19.827Z,1020.77
2022-07-29T00:46:29.249Z,1020.81
2022-07-29T00:46:38.644Z,1020.76
2022-07-29T00:46:57.533Z,1020.74
2022-07-29T00:47:06.873Z,1020.83
2022-07-29T00:47:16.226Z,1020.81
2022-07-29T00:47:25.643Z,1020.79
2022-07-29T00:47:35.063Z,1020.81
2022-07-29T00:47:44.484Z,1020.77
2022-07-29T00:47:53.904Z,1020.79
2022-07-29T00:48:03.323Z,1020.80
2022-07-29T00:48:12.750Z,1020.81
2022-07-29T00:48:22.160Z,1020.75
2022-07-29T00:48:31.588Z,1020.75
2022-07-29T00:48:41.058Z,1020.78
2022-07-29T00:48:50.514Z,1020.80
2022-07-29T00:48:59.892Z,1020.77
2022-07-29T00:49:09.336Z,1020.82
2022-07-29T00:49:18.884Z,1020.79
2022-07-29T00:49:41.294Z,1020.77
2022-07-29T00:49:50.711Z,1020.81
2022-07-29T00:50:00.158Z,1020.81
2022-07-29T00:50:09.553Z,1020.77
2022-07-29T00:50:19.003Z,1020.82
2022-07-29T00:50:28.400Z,1020.77
2022-07-29T00:50:37.803Z,1020.77
2022-07-29T00:50:47.211Z,1020.77
2022-07-29T00:50:56.612Z,1020.76
2022-07-29T00:51:06.011Z,1020.81
2022-07-29T00:51:15.456Z,1020.85
2022-07-29T00:51:24.885Z,1020.80
2022-07-29T00:51:34.311Z,1020.80
2022-07-29T00:51:43.729Z,1020.83
2022-07-29T00:51:53.153Z,1020.85
2022-07-29T00:52:02.560Z,1020.80
2022-07-29T00:52:11.981Z,1020.80
2022-07-29T00:52:21.457Z,1020.81
2022-07-29T00:52:30.894Z,1020.81
2022-07-29T00:52:40.295Z,1020.80
2022-07-29T00:52:49.691Z,1020.86
2022-07-29T00:52:59.102Z,1020.77
2022-07-29T00:53:08.507Z,1020.77
2022-07-29T00:53:27.357Z,1020.84
2022-07-29T00:53:36.768Z,1020.84
2022-07-29T00:53:46.161Z,1020.77
2022-07-29T00:53:55.558Z,1020.82
2022-07-29T00:54:04.953Z,1020.81
2022-07-29T00:54:14.684Z,1020.80
2022-07-29T00:54:23.775Z,1020.80
2022-07-29T00:54:33.178Z,1020.80
2022-07-29T00:54:44.834Z,1020.71
2022-07-29T00:54:52.010Z,1020.78
2022-07-29T00:55:06.338Z,1020.82
2022-07-29T00:55:10.841Z,1020.77
2022-07-29T00:55:20.262Z,1020.80
2022-07-29T00:55:29.685Z,1020.74
2022-07-29T00:55:39.099Z,1020.80
2022-07-29T00:55:48.519Z,1020.74
2022-07-29T00:56:07.367Z,1020.82
2022-07-29T00:56:16.780Z,1020.81
2022-07-29T00:56:26.211Z,1020.77
2022-07-29T00:56:35.633Z,1020.80
2022-07-29T00:56:45.053Z,1020.77
2022-07-29T00:56:54.462Z,1020.75
2022-07-29T00:57:03.876Z,1020.82
2022-07-29T00:57:13.420Z,1020.74
2022-07-29T00:57:22.679Z,1020.76
2022-07-29T00:57:32.125Z,1020.79
2022-07-29T00:57:41.568Z,1020.76
2022-07-29T00:57:50.977Z,1020.74
2022-07-29T00:58:00.418Z,1020.82
2022-07-29T00:58:09.849Z,1020.78
2022-07-29T00:58:19.252Z,1020.81
2022-07-29T00:58:28.676Z,1020.81
2022-07-29T00:58:47.503Z,1020.82
2022-07-29T00:58:56.913Z,1020.76
2022-07-29T00:59:06.320Z,1020.76
2022-07-29T00:59:15.732Z,1020.81
2022-07-29T00:59:25.149Z,1020.80
2022-07-29T00:59:35.508Z,1020.80
2022-07-29T00:59:44.009Z,1020.74
2022-07-29T00:59:53.416Z,1020.80
2022-07-29T01:00:02.838Z,1020.78
2022-07-29T01:00:12.254Z,1020.81
2022-07-29T01:00:21.727Z,1020.82
2022-07-29T01:00:31.269Z,1020.78
2022-07-29T01:00:40.649Z,1020.78
2022-07-29T01:00:50.091Z,1020.80
2022-07-29T01:00:59.537Z,1020.88
2022-07-29T01:01:08.923Z,1020.76
2022-07-29T01:01:27.740Z,1020.86
2022-07-29T01:01:37.170Z,1020.78
2022-07-29T01:01:46.635Z,1020.75
2022-07-29T01:01:56.018Z,1020.81
2022-07-29T01:02:05.463Z,1020.84
2022-07-29T01:02:14.824Z,1020.78
2022-07-29T01:02:24.291Z,1020.78
2022-07-29T01:02:33.671Z,1020.81
2022-07-29T01:02:43.034Z,1020.78
2022-07-29T01:02:52.458Z,1020.78
2022-07-29T01:03:01.935Z,1020.76
2022-07-29T01:03:11.353Z,1020.84
2022-07-29T01:03:20.791Z,1020.73
2022-07-29T01:03:30.213Z,1020.79
2022-07-29T01:03:39.613Z,1020.77
2022-07-29T01:03:49.064Z,1020.78
2022-07-29T01:03:58.477Z,1020.81
2022-07-29T01:04:17.817Z,1020.79
2022-07-29T01:04:26.802Z,1020.84
2022-07-29T01:04:36.218Z,1020.83
2022-07-29T01:04:45.660Z,1020.76
2022-07-29T01:04:55.061Z,1020.81
2022-07-29T01:05:04.501Z,1020.79
2022-07-29T01:05:13.930Z,1020.79
2022-07-29T01:05:23.562Z,1020.82
2022-07-29T01:05:49.932Z,1020.79
2022-07-29T01:05:50.429Z,1020.76
2022-07-29T01:05:52.122Z,1020.79
2022-07-29T01:06:01.448Z,1020.76
2022-07-29T01:06:10.859Z,1020.79
2022-07-29T01:06:20.268Z,1020.82
2022-07-29T01:06:29.708Z,1020.82
2022-07-29T01:06:39.128Z,1020.82
2022-07-29T01:06:48.549Z,1020.82
2022-07-29T01:07:07.397Z,1020.85
2022-07-29T01:07:16.909Z,1020.79
2022-07-29T01:07:26.316Z,1020.79
2022-07-29T01:07:35.758Z,1020.80
2022-07-29T01:07:45.178Z,1020.80
2022-07-29T01:07:54.578Z,1020.86
2022-07-29T01:08:04.016Z,1020.86
2022-07-29T01:08:13.415Z,1020.85
2022-07-29T01:08:22.796Z,1020.80
2022-07-29T01:08:32.243Z,1020.87
2022-07-29T01:08:41.647Z,1020.84
2022-07-29T01:08:51.057Z,1020.84
2022-07-29T01:09:00.480Z,1020.80
2022-07-29T01:09:09.906Z,1020.86
2022-07-29T01:09:19.322Z,1020.81
2022-07-29T01:09:42.056Z,1020.86
2022-07-29T01:09:47.607Z,1020.90
2022-07-29T01:09:57.077Z,1020.85
2022-07-29T01:10:06.491Z,1020.80
2022-07-29T01:10:15.953Z,1020.85
2022-07-29T01:10:25.378Z,1020.90
2022-07-29T01:10:34.786Z,1020.86
2022-07-29T01:10:44.210Z,1020.76
2022-07-29T01:10:53.635Z,1020.78
2022-07-29T01:11:03.036Z,1020.85
2022-07-29T01:11:12.438Z,1020.77
2022-07-29T01:11:21.857Z,1020.81
2022-07-29T01:11:31.316Z,1020.85
2022-07-29T01:11:40.730Z,1020.83
2022-07-29T01:11:50.120Z,1020.87
2022-07-29T01:11:59.551Z,1020.82
2022-07-29T01:12:08.981Z,1020.85
2022-07-29T01:12:18.378Z,1020.83
2022-07-29T01:12:37.227Z,1020.87
2022-07-29T01:12:46.683Z,1020.76
2022-07-29T01:12:56.103Z,1020.86
2022-07-29T01:13:05.532Z,1020.82
2022-07-29T01:13:14.945Z,1020.84
2022-07-29T01:13:24.345Z,1020.80
2022-07-29T01:13:33.750Z,1020.75
2022-07-29T01:13:43.167Z,1020.76
2022-07-29T01:13:52.556Z,1020.81
2022-07-29T01:14:01.958Z,1020.81
2022-07-29T01:14:11.506Z,1020.82
2022-07-29T01:14:20.794Z,1020.80
2022-07-29T01:14:30.213Z,1020.83
2022-07-29T01:14:39.629Z,1020.81
2022-07-29T01:14:49.013Z,1020.84
2022-07-29T01:14:58.442Z,1020.87
2022-07-29T01:15:17.283Z,1020.79
2022-07-29T01:15:26.700Z,1020.80
2022-07-29T01:15:36.114Z,1020.88
2022-07-29T01:15:49.430Z,1020.79
2022-07-29T01:15:55.024Z,1020.83
2022-07-29T01:16:04.500Z,1020.77
2022-07-29T01:16:13.933Z,1020.86
2022-07-29T01:16:23.323Z,1020.83
2022-07-29T01:16:32.729Z,1020.79
2022-07-29T01:16:42.134Z,1020.79
2022-07-29T01:16:51.522Z,1020.86
2022-07-29T01:17:00.942Z,1020.73
2022-07-29T01:17:10.365Z,1020.76
2022-07-29T01:17:19.798Z,1020.75
2022-07-29T01:17:29.207Z,1020.72
2022-07-29T01:17:38.629Z,1020.79
2022-07-29T01:17:57.480Z,1020.70
2022-07-29T01:18:06.876Z,1020.70
2022-07-29T01:18:18.173Z,1020.74
2022-07-29T01:18:25.734Z,1020.70
2022-07-29T01:18:35.131Z,1020.74
2022-07-29T01:18:44.520Z,1020.74
2022-07-29T01:18:53.925Z,1020.74
2022-07-29T01:19:03.323Z,1020.79
2022-07-29T01:19:12.732Z,1020.79
2022-07-29T01:19:22.154Z,1020.79
2022-07-29T01:19:31.650Z,1020.71
2022-07-29T01:19:41.054Z,1020.75
2022-07-29T01:19:50.449Z,1020.76
2022-07-29T01:19:59.848Z,1020.83
2022-07-29T01:20:09.257Z,1020.80
2022-07-29T01:20:18.733Z,1020.78
2022-07-29T01:20:37.524Z,1020.73
2022-07-29T01:20:46.963Z,1020.79
2022-07-29T01:20:56.371Z,1020.75
2022-07-29T01:21:05.793Z,1020.71
2022-07-29T01:21:15.282Z,1020.75
2022-07-29T01:21:24.692Z,1020.75
2022-07-29T01:21:34.111Z,1020.75
2022-07-29T01:21:43.536Z,1020.78
2022-07-29T01:21:52.948Z,1020.74
2022-07-29T01:22:02.422Z,1020.75
2022-07-29T01:22:11.829Z,1020.75
2022-07-29T01:22:21.237Z,1020.79
2022-07-29T01:22:30.703Z,1020.77
2022-07-29T01:22:40.126Z,1020.69
2022-07-29T01:22:49.552Z,1020.71
2022-07-29T01:22:58.983Z,1020.75
2022-07-29T01:23:08.401Z,1020.73
2022-07-29T01:23:27.194Z,1020.75
2022-07-29T01:23:36.618Z,1020.71
2022-07-29T01:23:46.081Z,1020.75
2022-07-29T01:23:55.479Z,1020.73
2022-07-29T01:24:04.880Z,1020.79
2022-07-29T01:24:14.588Z,1020.76
2022-07-29T01:24:23.694Z,1020.70
2022-07-29T01:24:33.124Z,1020.73
2022-07-29T01:24:42.539Z,1020.78
2022-07-29T01:24:51.982Z,1020.70
2022-07-29T01:25:01.406Z,1020.77
2022-07-29T01:25:10.823Z,1020.75
2022-07-29T01:25:20.221Z,1020.79
2022-07-29T01:25:29.638Z,1020.68
2022-07-29T01:25:39.061Z,1020.73
2022-07-29T01:25:48.578Z,1020.72
2022-07-29T01:26:07.315Z,1020.68
2022-07-29T01:26:16.739Z,1020.74
2022-07-29T01:26:26.159Z,1020.75
2022-07-29T01:26:35.574Z,1020.68
2022-07-29T01:26:44.997Z,1020.69
2022-07-29T01:26:54.428Z,1020.66
2022-07-29T01:27:03.846Z,1020.70
2022-07-29T01:27:13.264Z,1020.72
2022-07-29T01:27:22.661Z,1020.76
2022-07-29T01:27:32.141Z,1020.75
2022-07-29T01:27:41.786Z,1020.71
2022-07-29T01:27:50.960Z,1020.76
2022-07-29T01:28:00.404Z,1020.75
2022-07-29T01:28:09.804Z,1020.76
2022-07-29T01:28:19.207Z,1020.77
2022-07-29T01:28:28.627Z,1020.75
2022-07-29T01:28:47.491Z,1020.77
2022-07-29T01:28:56.897Z,1020.74
2022-07-29T01:29:07.702Z,1020.69
2022-07-29T01:29:15.736Z,1020.70
2022-07-29T01:29:25.149Z,1020.71
2022-07-29T01:29:38.947Z,1020.69
2022-07-29T01:29:44.020Z,1020.69
2022-07-29T01:29:53.417Z,1020.73
2022-07-29T01:30:05.250Z,1020.72
2022-07-29T01:30:13.070Z,1020.72
2022-07-29T01:30:21.660Z,1020.68
2022-07-29T01:30:31.101Z,1020.74
2022-07-29T01:30:40.531Z,1020.72
2022-07-29T01:30:49.958Z,1020.67
2022-07-29T01:30:59.407Z,1020.72
2022-07-29T01:31:08.816Z,1020.71
2022-07-29T01:31:27.610Z,1020.78
2022-07-29T01:31:38.468Z,1020.76
2022-07-29T01:31:59.412Z,1020.74
2022-07-29T01:32:00.696Z,1020.67
2022-07-29T01:32:05.348Z,1020.75
2022-07-29T01:32:27.810Z,1020.72
2022-07-29T01:32:28.974Z,1020.68
2022-07-29T01:32:33.642Z,1020.69
2022-07-29T01:32:42.930Z,1020.68
2022-07-29T01:32:52.348Z,1020.70
2022-07-29T01:33:02.024Z,1020.73
2022-07-29T01:33:11.530Z,1020.70
2022-07-29T01:33:20.949Z,1020.72
2022-07-29T01:33:30.373Z,1020.72
2022-07-29T01:33:39.793Z,1020.71
2022-07-29T01:33:49.204Z,1020.77
2022-07-29T01:33:58.610Z,1020.70
2022-07-29T01:34:18.092Z,1020.79
2022-07-29T01:34:27.086Z,1020.77
2022-07-29T01:34:36.496Z,1020.69
2022-07-29T01:34:45.938Z,1020.73
2022-07-29T01:34:55.405Z,1020.72
2022-07-29T01:35:04.814Z,1020.71
2022-07-29T01:35:14.206Z,1020.78
2022-07-29T01:35:23.673Z,1020.79
2022-07-29T01:35:33.081Z,1020.80
2022-07-29T01:35:42.499Z,1020.78
2022-07-29T01:35:51.921Z,1020.74
2022-07-29T01:36:01.445Z,1020.71
2022-07-29T01:36:10.876Z,1020.75
2022-07-29T01:36:20.298Z,1020.69
2022-07-29T01:36:29.746Z,1020.77
2022-07-29T01:36:39.168Z,1020.76
2022-07-29T01:36:48.594Z,1020.78
2022-07-29T01:37:07.443Z,1020.84
2022-07-29T01:37:16.890Z,1020.82
2022-07-29T01:37:26.301Z,1020.74
2022-07-29T01:37:35.719Z,1020.75
2022-07-29T01:37:45.161Z,1020.76
2022-07-29T01:37:54.569Z,1020.73
2022-07-29T01:38:03.991Z,1020.75
2022-07-29T01:38:13.388Z,1020.76
2022-07-29T01:38:22.804Z,1020.72
2022-07-29T01:38:32.218Z,1020.70
2022-07-29T01:38:41.599Z,1020.73
2022-07-29T01:38:51.009Z,1020.75
2022-07-29T01:39:00.452Z,1020.70
2022-07-29T01:39:09.904Z,1020.80
2022-07-29T01:39:19.372Z,1020.80
2022-07-29T01:39:28.815Z,1020.77
2022-07-29T01:39:47.628Z,1020.80
2022-07-29T01:39:57.032Z,1020.74
2022-07-29T01:40:06.456Z,1020.74
2022-07-29T01:40:15.869Z,1020.89
2022-07-29T01:40:25.288Z,1020.76
2022-07-29T01:40:34.702Z,1020.74
2022-07-29T01:40:44.108Z,1020.82
2022-07-29T01:40:53.518Z,1020.79
2022-07-29T01:41:02.933Z,1020.83
2022-07-29T01:41:12.342Z,1020.77
2022-07-29T01:41:21.755Z,1020.76
2022-07-29T01:41:31.225Z,1020.75
2022-07-29T01:41:40.635Z,1020.80
2022-07-29T01:41:50.060Z,1020.74
2022-07-29T01:41:59.475Z,1020.82
2022-07-29T01:42:08.921Z,1020.78
2022-07-29T01:42:27.786Z,1020.71
2022-07-29T01:42:37.197Z,1020.80
2022-07-29T01:42:46.685Z,1020.74
2022-07-29T01:42:56.109Z,1020.69
2022-07-29T01:43:05.526Z,1020.78
2022-07-29T01:43:14.929Z,1020.75
2022-07-29T01:43:24.363Z,1020.73
2022-07-29T01:43:33.792Z,1020.73
2022-07-29T01:43:43.194Z,1020.74
2022-07-29T01:43:52.603Z,1020.72
2022-07-29T01:44:02.021Z,1020.76
2022-07-29T01:44:11.429Z,1020.70
2022-07-29T01:44:20.867Z,1020.72
2022-07-29T01:44:30.291Z,1020.78
2022-07-29T01:44:39.707Z,1020.76
2022-07-29T01:44:49.119Z,1020.76
2022-07-29T01:44:58.543Z,1020.74
2022-07-29T01:45:17.448Z,1020.78
2022-07-29T01:45:26.803Z,1020.72
2022-07-29T01:45:36.230Z,1020.73
2022-07-29T01:45:45.639Z,1020.70
2022-07-29T01:45:55.069Z,1020.77
2022-07-29T01:46:04.668Z,1020.75
2022-07-29T01:46:13.960Z,1020.72
2022-07-29T01:46:23.421Z,1020.77
2022-07-29T01:46:32.843Z,1020.77
2022-07-29T01:46:42.278Z,1020.72
2022-07-29T01:46:51.718Z,1020.75
2022-07-29T01:47:01.102Z,1020.75
2022-07-29T01:47:10.436Z,1020.77
2022-07-29T01:47:19.828Z,1020.76
2022-07-29T01:47:29.242Z,1020.81
2022-07-29T01:47:38.646Z,1020.78
2022-07-29T01:47:57.463Z,1020.78
2022-07-29T01:48:06.886Z,1020.74
2022-07-29T01:48:16.313Z,1020.79
2022-07-29T01:48:25.732Z,1020.73
2022-07-29T01:48:35.137Z,1020.73
2022-07-29T01:48:44.616Z,1020.78
2022-07-29T01:48:54.169Z,1020.67
2022-07-29T01:49:03.535Z,1020.81
2022-07-29T01:49:12.971Z,1020.75
2022-07-29T01:49:22.433Z,1020.86
2022-07-29T01:49:31.779Z,1020.78
2022-07-29T01:49:41.205Z,1020.79
2022-07-29T01:49:50.643Z,1020.69
2022-07-29T01:50:00.064Z,1020.80
2022-07-29T01:50:09.473Z,1020.77
2022-07-29T01:50:18.881Z,1020.77
2022-07-29T01:50:37.699Z,1020.79
2022-07-29T01:50:47.147Z,1020.69
2022-07-29T01:50:56.554Z,1020.73
2022-07-29T01:51:05.963Z,1020.73
2022-07-29T01:51:15.377Z,1020.83
2022-07-29T01:51:24.798Z,1020.70
2022-07-29T01:51:34.196Z,1020.73
2022-07-29T01:51:43.620Z,1020.75
2022-07-29T01:51:53.027Z,1020.72
2022-07-29T01:52:02.483Z,1020.74
2022-07-29T01:52:11.903Z,1020.72
2022-07-29T01:52:21.399Z,1020.74
2022-07-29T01:52:30.815Z,1020.75
2022-07-29T01:52:40.243Z,1020.75
2022-07-29T01:52:49.657Z,1020.74
2022-07-29T01:52:59.054Z,1020.73
2022-07-29T01:53:08.487Z,1020.70
2022-07-29T01:53:27.303Z,1020.70
2022-07-29T01:53:37.970Z,1020.72
2022-07-29T01:53:46.136Z,1020.68
2022-07-29T01:53:55.530Z,1020.79
2022-07-29T01:54:04.953Z,1020.73
2022-07-29T01:54:14.704Z,1020.77
2022-07-29T01:54:23.786Z,1020.71
2022-07-29T01:54:33.233Z,1020.65
2022-07-29T01:54:42.631Z,1020.76
2022-07-29T01:54:52.032Z,1020.71
2022-07-29T01:55:01.446Z,1020.73
2022-07-29T01:55:10.852Z,1020.69
2022-07-29T01:55:20.302Z,1020.69
2022-07-29T01:55:29.698Z,1020.74
2022-07-29T01:55:39.098Z,1020.74
2022-07-29T01:55:48.558Z,1020.73
2022-07-29T01:56:07.436Z,1020.73
2022-07-29T01:56:16.974Z,1020.74
2022-07-29T01:56:26.374Z,1020.71
2022-07-29T01:56:35.786Z,1020.69
2022-07-29T01:56:45.242Z,1020.70
2022-07-29T01:56:54.652Z,1020.75
2022-07-29T01:57:04.057Z,1020.72
2022-07-29T01:57:13.478Z,1020.74
2022-07-29T01:57:22.880Z,1020.67
2022-07-29T01:57:32.334Z,1020.74
2022-07-29T01:57:41.734Z,1020.73
2022-07-29T01:57:51.150Z,1020.76
2022-07-29T01:58:00.614Z,1020.73
2022-07-29T01:58:10.047Z,1020.77
2022-07-29T01:58:19.933Z,1020.69
2022-07-29T01:58:28.876Z,1020.76
2022-07-29T01:58:47.689Z,1020.72
2022-07-29T01:58:57.095Z,1020.70
2022-07-29T01:59:06.523Z,1020.72
2022-07-29T01:59:15.918Z,1020.72
2022-07-29T01:59:25.359Z,1020.74
2022-07-29T01:59:34.761Z,1020.63
2022-07-29T01:59:44.244Z,1020.73
2022-07-29T01:59:53.661Z,1020.75
2022-07-29T02:00:03.071Z,1020.68
2022-07-29T02:00:12.479Z,1020.67
2022-07-29T02:00:21.895Z,1020.72
2022-07-29T02:00:31.318Z,1020.72
2022-07-29T02:00:40.737Z,1020.69
2022-07-29T02:00:50.159Z,1020.71
2022-07-29T02:00:59.604Z,1020.70